createdAt,value
2022-09-24T00:01:29.420Z,93.90
2022-09-24T00:04:02.401Z,93.90
2022-09-24T00:06:33.513Z,93.80
2022-09-24T00:09:00.186Z,94.10
2022-09-24T00:11:28.681Z,93.90
2022-09-24T00:13:57.245Z,93.80
2022-09-24T00:16:26.919Z,94.00
2022-09-24T00:18:54.526Z,94.20
2022-09-24T00:21:30.232Z,94.20
2022-09-24T00:23:59.817Z,94.10
2022-09-24T00:26:46.031Z,94.00
2022-09-24T00:29:15.712Z,94.10
2022-09-24T00:31:42.703Z,94.40
2022-09-24T00:34:09.485Z,94.20
2022-09-24T00:36:37.246Z,94.40
2022-09-24T00:39:04.538Z,94.40
2022-09-24T00:41:33.681Z,93.90
2022-09-24T00:44:00.936Z,93.90
2022-09-24T00:46:42.820Z,93.80
2022-09-24T00:49:15.398Z,93.60
2022-09-24T00:51:45.201Z,94.00
2022-09-24T00:54:20.935Z,94.20
2022-09-24T00:56:49.970Z,94.10
2022-09-24T00:59:19.233Z,94.30
2022-09-24T01:01:47.840Z,94.30
2022-09-24T01:04:21.055Z,94.20
2022-09-24T01:06:49.161Z,94.10
2022-09-24T01:09:17.319Z,94.10
2022-09-24T01:12:11.522Z,94.10
2022-09-24T01:14:56.341Z,93.90
2022-09-24T01:17:44.030Z,94.00
2022-09-24T01:20:44.870Z,94.00
2022-09-24T01:23:49.373Z,94.40
2022-09-24T01:26:49.032Z,94.40
2022-09-24T01:29:41.948Z,94.50
2022-09-24T01:32:38.110Z,94.90
2022-09-24T01:35:43.766Z,95.20
2022-09-24T01:38:17.598Z,95.40
2022-09-24T01:40:46.393Z,95.50
2022-09-24T01:43:15.889Z,95.70
2022-09-24T01:45:42.891Z,95.50
2022-09-24T01:48:09.889Z,95.50
2022-09-24T01:50:52.594Z,95.50
2022-09-24T01:53:30.782Z,95.60
2022-09-24T01:56:07.297Z,95.30
2022-09-24T01:58:40.779Z,95.60
2022-09-24T02:01:12.378Z,95.80
2022-09-24T02:03:44.099Z,95.80
2022-09-24T02:06:17.592Z,95.60
2022-09-24T02:08:47.350Z,95.80
2022-09-24T02:11:24.370Z,96.00
2022-09-24T02:14:12.352Z,95.90
2022-09-24T02:16:49.021Z,95.90
2022-09-24T02:19:19.481Z,95.80
2022-09-24T02:21:46.516Z,96.20
2022-09-24T02:24:39.196Z,96.30
2022-09-24T02:27:06.017Z,96.20
2022-09-24T02:29:32.667Z,96.00
2022-09-24T02:32:00.454Z,95.80
2022-09-24T02:34:32.553Z,95.90
2022-09-24T02:37:05.277Z,96.10
2022-09-24T02:39:31.980Z,96.00
2022-09-24T02:41:59.645Z,96.10
2022-09-24T02:44:26.383Z,96.10
2022-09-24T02:46:53.104Z,95.80
2022-09-24T02:49:19.783Z,96.20
2022-09-24T02:51:46.455Z,96.40
2022-09-24T02:54:13.255Z,96.40
2022-09-24T02:56:40.238Z,96.20
2022-09-24T02:59:07.652Z,95.80
2022-09-24T03:01:34.971Z,95.90
2022-09-24T03:04:02.495Z,95.80
2022-09-24T03:06:30.325Z,96.00
2022-09-24T03:08:57.614Z,95.60
2022-09-24T03:11:24.794Z,95.60
2022-09-24T03:13:51.963Z,95.60
2022-09-24T03:16:19.263Z,95.60
2022-09-24T03:18:47.423Z,95.50
2022-09-24T03:21:18.095Z,95.20
2022-09-24T03:23:45.195Z,95.00
2022-09-24T03:26:12.763Z,95.00
2022-09-24T03:28:39.701Z,95.30
2022-09-24T03:31:07.942Z,94.50
2022-09-24T03:33:48.939Z,94.50
2022-09-24T03:36:21.304Z,94.70
2022-09-24T03:38:49.363Z,94.30
2022-09-24T03:41:16.808Z,95.00
2022-09-24T03:43:44.078Z,95.50
2022-09-24T03:46:12.518Z,95.90
2022-09-24T03:48:40.861Z,95.80
2022-09-24T03:51:19.034Z,95.80
2022-09-24T03:53:46.413Z,95.70
2022-09-24T03:56:13.191Z,95.60
2022-09-24T03:58:41.811Z,95.90
2022-09-24T04:01:10.218Z,96.10
2022-09-24T04:03:37.223Z,96.30
2022-09-24T04:06:05.294Z,96.50
2022-09-24T04:08:32.397Z,96.50
2022-09-24T04:10:59.446Z,96.70
2022-09-24T04:13:26.211Z,96.20
2022-09-24T04:15:53.677Z,95.80
2022-09-24T04:18:20.953Z,96.00
2022-09-24T04:20:47.905Z,95.70
2022-09-24T04:23:14.665Z,95.80
2022-09-24T04:25:41.402Z,95.10
2022-09-24T04:28:09.573Z,95.20
2022-09-24T04:30:38.119Z,95.20
2022-09-24T04:33:05.243Z,95.10
2022-09-24T04:35:35.837Z,95.20
2022-09-24T04:38:05.893Z,95.50
2022-09-24T04:40:33.026Z,95.40
2022-09-24T04:42:59.778Z,95.60
2022-09-24T04:45:26.753Z,95.60
2022-09-24T04:47:57.374Z,95.70
2022-09-24T04:50:26.374Z,95.70
2022-09-24T04:52:54.363Z,94.90
2022-09-24T04:55:22.184Z,95.20
2022-09-24T04:57:50.292Z,95.30
2022-09-24T05:00:19.176Z,94.80
2022-09-24T05:02:46.745Z,94.90
2022-09-24T05:05:14.130Z,94.90
2022-09-24T05:07:42.619Z,94.60
2022-09-24T05:10:09.415Z,94.40
2022-09-24T05:12:36.371Z,94.60
2022-09-24T05:15:04.292Z,94.60
2022-09-24T05:17:31.120Z,94.80
2022-09-24T05:19:59.391Z,94.20
2022-09-24T05:22:30.098Z,94.40
2022-09-24T05:24:56.816Z,94.40
2022-09-24T05:27:24.137Z,94.40
2022-09-24T05:29:50.789Z,94.70
2022-09-24T05:32:19.929Z,94.90
2022-09-24T05:34:47.184Z,95.00
2022-09-24T05:37:15.220Z,95.20
2022-09-24T05:39:42.264Z,95.20
2022-09-24T05:42:14.238Z,95.00
2022-09-24T05:44:42.820Z,95.00
2022-09-24T05:47:09.674Z,95.20
2022-09-24T05:49:36.703Z,95.60
2022-09-24T05:52:03.906Z,95.50
2022-09-24T05:54:30.539Z,95.40
2022-09-24T05:56:57.166Z,95.50
2022-09-24T05:59:24.873Z,95.90
2022-09-24T06:01:52.236Z,95.80
2022-09-24T06:04:18.937Z,95.00
2022-09-24T06:06:45.567Z,95.00
2022-09-24T06:09:12.387Z,94.70
2022-09-24T06:11:40.870Z,95.00
2022-09-24T06:14:09.010Z,95.10
2022-09-24T06:16:36.311Z,95.20
2022-09-24T06:19:03.161Z,95.10
2022-09-24T06:21:29.843Z,94.70
2022-09-24T06:23:56.530Z,94.30
2022-09-24T06:26:23.533Z,94.40
2022-09-24T06:28:50.148Z,94.60
2022-09-24T06:31:16.863Z,94.80
2022-09-24T06:33:43.605Z,94.70
2022-09-24T06:36:10.527Z,94.60
2022-09-24T06:38:40.213Z,94.60
2022-09-24T06:41:07.643Z,93.80
2022-09-24T06:43:34.827Z,93.60
2022-09-24T06:46:03.230Z,93.30
2022-09-24T06:48:31.040Z,93.20
2022-09-24T06:50:57.681Z,93.20
2022-09-24T06:53:24.739Z,93.50
2022-09-24T06:55:51.441Z,93.70
2022-09-24T06:58:20.604Z,93.80
2022-09-24T07:00:55.240Z,93.80
2022-09-24T07:03:22.269Z,93.80
2022-09-24T07:05:49.228Z,93.50
2022-09-24T07:08:16.642Z,93.60
2022-09-24T07:10:49.051Z,93.30
2022-09-24T07:13:16.354Z,93.20
2022-09-24T07:15:44.103Z,93.20
2022-09-24T07:18:11.575Z,93.30
2022-09-24T07:20:39.072Z,93.40
2022-09-24T07:23:07.819Z,93.40
2022-09-24T07:25:35.043Z,93.30
2022-09-24T07:28:10.831Z,93.10
2022-09-24T07:30:37.835Z,93.10
2022-09-24T07:33:05.881Z,93.00
2022-09-24T07:35:33.213Z,93.20
2022-09-24T07:38:08.578Z,93.20
2022-09-24T07:40:35.306Z,92.60
2022-09-24T07:43:02.139Z,92.70
2022-09-24T07:45:29.733Z,93.70
2022-09-24T07:48:01.398Z,93.70
2022-09-24T07:50:30.145Z,93.50
2022-09-24T07:52:56.866Z,92.60
2022-09-24T07:55:24.196Z,92.00
2022-09-24T07:57:52.877Z,91.70
2022-09-24T08:00:21.006Z,91.40
2022-09-24T08:02:48.212Z,91.30
2022-09-24T08:05:18.008Z,91.10
2022-09-24T08:07:55.677Z,91.80
2022-09-24T08:10:23.575Z,92.20
2022-09-24T08:12:50.371Z,92.20
2022-09-24T08:15:17.153Z,92.00
2022-09-24T08:17:43.807Z,91.30
2022-09-24T08:20:12.101Z,91.10
2022-09-24T08:22:38.761Z,91.40
2022-09-24T08:25:06.047Z,91.40
2022-09-24T08:27:32.889Z,91.70
2022-09-24T08:30:00.554Z,91.80
2022-09-24T08:32:29.408Z,91.90
2022-09-24T08:34:56.086Z,91.40
2022-09-24T08:37:22.877Z,91.00
2022-09-24T08:39:49.534Z,91.10
2022-09-24T08:42:46.634Z,90.90
2022-09-24T08:45:31.950Z,90.60
2022-09-24T08:48:13.739Z,90.90
2022-09-24T08:50:51.097Z,91.00
2022-09-24T08:53:26.507Z,89.70
2022-09-24T08:55:55.663Z,89.50
2022-09-24T08:58:33.739Z,89.80
2022-09-24T09:01:12.770Z,89.60
2022-09-24T09:03:40.106Z,89.20
2022-09-24T09:06:21.742Z,89.40
2022-09-24T09:09:06.783Z,89.20
2022-09-24T09:11:36.482Z,89.60
2022-09-24T09:14:43.269Z,89.50
2022-09-24T09:17:23.221Z,90.10
2022-09-24T09:19:55.862Z,89.80
2022-09-24T09:22:28.108Z,89.10
2022-09-24T09:25:03.472Z,89.30
2022-09-24T09:27:30.885Z,89.10
2022-09-24T09:29:59.670Z,89.30
2022-09-24T09:32:47.054Z,89.30
2022-09-24T09:35:19.452Z,88.10
2022-09-24T09:38:05.513Z,88.10
2022-09-24T09:41:13.669Z,88.40
2022-09-24T09:43:41.693Z,88.60
2022-09-24T09:46:18.321Z,88.80
2022-09-24T09:48:49.403Z,88.00
2022-09-24T09:51:22.641Z,87.90
2022-09-24T09:54:03.291Z,87.40
2022-09-24T09:56:50.501Z,87.80
2022-09-24T09:59:29.844Z,87.70
2022-09-24T10:02:33.911Z,88.20
2022-09-24T10:05:08.789Z,89.20
2022-09-24T10:07:53.800Z,88.90
2022-09-24T10:40:56.056Z,83.10
2022-09-24T10:43:24.923Z,83.80
2022-09-24T10:46:17.579Z,83.90
2022-09-24T10:49:00.179Z,83.30
2022-09-24T10:51:35.653Z,83.40
2022-09-24T10:54:21.195Z,83.60
2022-09-24T10:56:51.700Z,83.30
2022-09-24T10:59:33.624Z,81.90
2022-09-24T11:02:06.235Z,80.90
2022-09-24T11:04:47.940Z,80.40
2022-09-24T11:07:52.553Z,80.40
2022-09-24T11:10:31.486Z,81.00
2022-09-24T11:13:13.266Z,81.50
2022-09-24T11:16:12.580Z,81.90
2022-09-24T11:18:52.807Z,82.40
2022-09-24T11:21:34.549Z,83.30
2022-09-24T11:24:42.106Z,83.60
2022-09-24T11:27:17.301Z,83.70
2022-09-24T11:30:08.686Z,84.40
2022-09-24T11:33:09.436Z,85.50
2022-09-24T11:36:16.025Z,86.30
2022-09-24T11:39:27.669Z,86.30
2022-09-24T11:42:20.776Z,86.60
2022-09-24T11:44:58.502Z,86.50
2022-09-24T11:47:33.931Z,87.40
2022-09-24T11:50:20.054Z,88.00
2022-09-24T11:52:57.712Z,88.10
2022-09-24T11:55:34.294Z,88.70
2022-09-24T11:58:29.289Z,87.50
2022-09-24T12:00:57.875Z,87.30
2022-09-24T12:03:36.524Z,86.90
2022-09-24T12:06:09.262Z,87.80
2022-09-24T12:09:20.529Z,87.40
2022-09-24T12:11:52.734Z,87.20
2022-09-24T12:14:25.440Z,87.90
2022-09-24T12:16:58.875Z,87.40
2022-09-24T12:19:53.891Z,87.20
2022-09-24T12:22:22.526Z,87.50
2022-09-24T12:24:54.676Z,87.00
2022-09-24T12:27:28.683Z,86.70
2022-09-24T12:30:34.118Z,86.70
2022-09-24T12:33:36.881Z,86.10
2022-09-24T12:36:28.614Z,86.90
2022-09-24T12:39:07.674Z,87.00
2022-09-24T12:41:45.244Z,86.80
2022-09-24T12:44:21.734Z,87.50
2022-09-24T12:46:53.193Z,87.10
2022-09-24T12:49:25.863Z,87.30
2022-09-24T12:51:54.679Z,86.90
2022-09-24T12:54:35.277Z,86.90
2022-09-24T12:57:26.015Z,87.30
2022-09-24T13:00:24.800Z,86.80
2022-09-24T13:02:52.691Z,86.40
2022-09-24T13:05:22.252Z,86.80
2022-09-24T13:08:17.602Z,87.30
2022-09-24T13:11:05.514Z,88.10
2022-09-24T13:13:36.145Z,87.60
2022-09-24T13:16:06.300Z,87.20
2022-09-24T13:18:37.252Z,88.20
2022-09-24T13:21:08.124Z,88.30
2022-09-24T13:23:37.772Z,88.10
2022-09-24T13:26:12.906Z,88.10
2022-09-24T13:28:48.803Z,87.70
2022-09-24T13:31:21.557Z,88.10
2022-09-24T13:34:02.549Z,88.20
2022-09-24T13:36:44.029Z,88.20
2022-09-24T13:39:16.828Z,88.10
2022-09-24T13:42:17.479Z,88.10
2022-09-24T13:44:48.946Z,88.00
2022-09-24T13:47:36.215Z,88.20
2022-09-24T13:50:47.873Z,88.60
2022-09-24T13:53:27.074Z,88.30
2022-09-24T13:55:56.973Z,87.90
2022-09-24T13:58:31.675Z,88.00
2022-09-24T14:01:01.321Z,87.20
2022-09-24T14:03:33.692Z,87.20
2022-09-24T14:06:15.132Z,86.80
2022-09-24T14:08:45.021Z,87.10
2022-09-24T14:11:27.569Z,87.40
2022-09-24T14:13:56.359Z,87.30
2022-09-24T14:16:25.388Z,87.00
2022-09-24T14:19:03.629Z,87.10
2022-09-24T14:21:47.969Z,86.90
2022-09-24T14:24:24.333Z,86.90
2022-09-24T14:27:06.110Z,87.40
2022-09-24T14:30:03.825Z,87.40
2022-09-24T14:32:40.415Z,87.60
2022-09-24T14:35:19.584Z,87.40
2022-09-24T14:37:51.274Z,86.40
2022-09-24T14:40:21.824Z,86.20
2022-09-24T14:42:53.630Z,86.90
2022-09-24T14:45:34.165Z,87.00
2022-09-24T14:48:05.181Z,87.00
2022-09-24T14:50:39.333Z,87.20
2022-09-24T14:53:30.268Z,87.50
2022-09-24T14:55:57.448Z,87.70
2022-09-24T14:58:25.570Z,87.80
2022-09-24T15:00:58.855Z,87.70
2022-09-24T15:03:41.054Z,87.40
2022-09-24T15:06:28.030Z,87.40
2022-09-24T15:09:04.189Z,86.90
2022-09-24T15:11:36.312Z,87.20
2022-09-24T15:14:13.368Z,86.90
2022-09-24T15:16:40.154Z,87.10
2022-09-24T15:19:06.788Z,87.50
2022-09-24T15:21:34.374Z,87.60
2022-09-24T15:24:01.255Z,88.80
2022-09-24T15:26:34.560Z,89.50
2022-09-24T15:29:02.026Z,88.50
2022-09-24T15:31:29.524Z,87.80
2022-09-24T15:33:56.296Z,87.00
2022-09-24T15:36:23.973Z,87.40
2022-09-24T15:38:52.311Z,87.30
2022-09-24T15:41:19.734Z,87.00
2022-09-24T15:43:46.448Z,86.90
2022-09-24T15:46:13.166Z,86.90
2022-09-24T15:48:39.895Z,87.40
2022-09-24T15:51:11.788Z,88.20
2022-09-24T15:53:41.331Z,88.40
2022-09-24T15:56:08.037Z,88.70
2022-09-24T15:58:35.057Z,87.80
2022-09-24T16:01:02.503Z,88.40
2022-09-24T16:03:31.294Z,88.50
2022-09-24T16:05:59.430Z,87.90
2022-09-24T16:08:26.750Z,87.60
2022-09-24T16:10:53.880Z,87.40
2022-09-24T16:13:23.166Z,88.00
2022-09-24T16:15:49.951Z,87.80
2022-09-24T16:18:22.111Z,88.00
2022-09-24T16:20:49.801Z,88.40
2022-09-24T16:23:17.905Z,88.80
2022-09-24T16:25:58.817Z,89.00
2022-09-24T16:28:26.622Z,89.10
2022-09-24T16:30:54.402Z,88.90
2022-09-24T16:33:21.642Z,88.70
2022-09-24T16:35:48.452Z,88.90
2022-09-24T16:38:20.265Z,88.80
2022-09-24T16:40:49.234Z,88.90
2022-09-24T16:43:16.134Z,89.20
2022-09-24T16:45:42.777Z,88.90
2022-09-24T16:48:11.711Z,89.60
2022-09-24T16:50:39.713Z,89.90
2022-09-24T16:53:06.663Z,90.20
2022-09-24T16:55:33.357Z,90.80
2022-09-24T16:58:00.447Z,91.50
2022-09-24T17:00:27.149Z,91.80
2022-09-24T17:02:53.915Z,92.00
2022-09-24T17:05:20.673Z,92.40
2022-09-24T17:07:47.322Z,92.80
2022-09-24T17:10:14.103Z,92.90
2022-09-24T17:12:43.127Z,93.20
2022-09-24T17:15:10.786Z,93.30
2022-09-24T17:17:45.646Z,93.30
2022-09-24T17:20:15.645Z,93.90
2022-09-24T17:22:42.581Z,94.00
2022-09-24T17:25:09.608Z,93.90
2022-09-24T17:27:36.444Z,94.10
2022-09-24T17:30:04.718Z,93.90
2022-09-24T17:32:31.406Z,93.90
2022-09-24T17:34:58.119Z,93.90
2022-09-24T17:37:24.882Z,94.30
2022-09-24T17:39:51.547Z,94.40
2022-09-24T17:42:18.191Z,94.40
2022-09-24T17:44:45.934Z,94.30
2022-09-24T17:47:12.780Z,94.00
2022-09-24T17:49:39.461Z,94.30
2022-09-24T17:52:06.137Z,94.80
2022-09-24T17:54:32.797Z,95.10
2022-09-24T17:56:59.624Z,94.60
2022-09-24T17:59:27.166Z,94.50
2022-09-24T18:01:54.051Z,94.60
2022-09-24T18:04:21.782Z,95.10
2022-09-24T18:06:49.762Z,95.30
2022-09-24T18:09:18.146Z,95.50
2022-09-24T18:11:51.334Z,95.70
2022-09-24T18:14:20.689Z,96.00
2022-09-24T18:16:49.273Z,95.80
2022-09-24T18:19:17.431Z,95.60
2022-09-24T18:21:45.320Z,94.90
2022-09-24T18:24:12.568Z,95.40
2022-09-24T18:26:39.845Z,95.60
2022-09-24T18:29:10.056Z,95.80
2022-09-24T18:31:37.948Z,95.80
2022-09-24T18:34:07.654Z,95.80
2022-09-24T18:36:39.953Z,95.60
2022-09-24T18:39:09.076Z,95.10
2022-09-24T18:41:36.861Z,95.00
2022-09-24T18:44:04.460Z,95.10
2022-09-24T18:46:32.438Z,95.30
2022-09-24T18:49:00.093Z,95.50
2022-09-24T18:51:30.916Z,95.70
2022-09-24T18:54:00.326Z,95.70
2022-09-24T18:56:27.606Z,95.80
2022-09-24T18:59:05.883Z,95.40
2022-09-24T19:01:35.540Z,95.20
2022-09-24T19:04:03.153Z,95.40
2022-09-24T19:06:30.951Z,95.50
2022-09-24T19:08:57.789Z,95.80
2022-09-24T19:11:24.409Z,96.20
2022-09-24T19:13:53.770Z,96.50
2022-09-24T19:16:25.105Z,96.30
2022-09-24T19:18:52.762Z,96.50
2022-09-24T19:21:20.134Z,96.60
2022-09-24T19:23:48.980Z,96.80
2022-09-24T19:26:19.502Z,96.70
2022-09-24T19:28:47.352Z,96.40
2022-09-24T19:31:20.266Z,96.50
2022-09-24T19:33:47.536Z,96.10
2022-09-24T19:36:14.457Z,95.90
2022-09-24T19:38:41.804Z,96.30
2022-09-24T19:41:13.300Z,96.30
2022-09-24T19:43:43.541Z,96.40
2022-09-24T19:46:16.819Z,96.30
2022-09-24T19:48:46.206Z,96.20
2022-09-24T19:51:28.377Z,96.20
2022-09-24T19:54:00.227Z,96.00
2022-09-24T19:56:28.496Z,95.80
2022-09-24T19:58:57.316Z,95.70
2022-09-24T20:01:29.593Z,96.30
2022-09-24T20:03:57.652Z,96.70
2022-09-24T20:06:28.622Z,96.80
2022-09-24T20:08:57.004Z,96.80
2022-09-24T20:11:24.859Z,96.50
2022-09-24T20:13:53.674Z,96.60
2022-09-24T20:16:25.919Z,96.70
2022-09-24T20:18:57.623Z,96.70
2022-09-24T20:21:27.609Z,96.60
2022-09-24T20:23:57.028Z,96.80
2022-09-24T20:26:43.645Z,96.80
2022-09-24T20:29:12.187Z,96.90
2022-09-24T20:31:51.065Z,97.30
2022-09-24T20:34:19.308Z,97.00
2022-09-24T20:36:46.194Z,97.30
2022-09-24T20:39:13.087Z,97.10
2022-09-24T20:41:41.955Z,96.90
2022-09-24T20:44:09.651Z,96.90
2022-09-24T20:46:36.524Z,97.10
2022-09-24T20:49:03.364Z,97.20
2022-09-24T20:51:33.426Z,97.20
2022-09-24T20:54:00.614Z,97.60
2022-09-24T20:56:27.701Z,97.80
2022-09-24T20:58:54.458Z,97.40
2022-09-24T21:01:22.284Z,96.70
2022-09-24T21:03:52.737Z,96.50
2022-09-24T21:06:23.332Z,96.50
2022-09-24T21:08:51.078Z,97.40
2022-09-24T21:11:25.081Z,97.30
2022-09-24T21:13:54.583Z,97.30
2022-09-24T21:16:24.287Z,97.50
2022-09-24T21:18:54.184Z,98.10
2022-09-24T21:21:26.742Z,98.20
2022-09-24T21:23:54.870Z,98.30
2022-09-24T21:26:24.038Z,98.30
2022-09-24T21:28:52.860Z,98.30
2022-09-24T21:31:22.002Z,98.30
2022-09-24T21:33:50.217Z,98.30
2022-09-24T21:36:19.262Z,98.30
2022-09-24T21:38:54.844Z,98.30
2022-09-24T21:41:23.556Z,98.30
2022-09-24T21:43:50.705Z,98.30
2022-09-24T21:46:17.481Z,98.30
2022-09-24T21:48:44.206Z,98.30
2022-09-24T21:51:22.161Z,98.30
2022-09-24T21:53:54.401Z,98.30
2022-09-24T21:56:21.756Z,98.30
2022-09-24T21:58:49.568Z,98.30
2022-09-24T22:01:17.780Z,98.30
2022-09-24T22:03:47.730Z,98.30
2022-09-24T22:06:15.086Z,98.30
2022-09-24T22:08:41.796Z,98.30
2022-09-24T22:11:10.282Z,98.30
2022-09-24T22:13:38.197Z,98.30
2022-09-24T22:16:07.355Z,98.30
2022-09-24T22:18:34.394Z,98.30
2022-09-24T22:21:09.884Z,98.30
2022-09-24T22:23:36.648Z,98.20
2022-09-24T22:26:04.242Z,98.30
2022-09-24T22:28:31.096Z,98.30
2022-09-24T22:30:59.739Z,98.30
2022-09-24T22:33:48.096Z,98.30
2022-09-24T22:36:15.270Z,98.30
2022-09-24T22:38:42.040Z,98.30
2022-09-24T22:41:10.913Z,98.30
2022-09-24T22:43:38.597Z,98.20
2022-09-24T22:46:07.834Z,98.20
2022-09-24T22:48:35.874Z,98.30
2022-09-24T22:51:03.270Z,98.30
2022-09-24T22:53:34.079Z,98.30
2022-09-24T22:56:08.073Z,98.30
2022-09-24T22:58:35.878Z,98.30
2022-09-24T23:01:22.395Z,98.30
2022-09-24T23:03:51.105Z,98.30
2022-09-24T23:06:17.950Z,98.30
2022-09-24T23:08:45.669Z,98.30
2022-09-24T23:11:16.656Z,98.30
2022-09-24T23:13:45.338Z,98.30
2022-09-24T23:16:17.475Z,98.30
2022-09-24T23:18:47.074Z,98.30
2022-09-24T23:21:16.723Z,97.90
2022-09-24T23:23:44.323Z,98.10
2022-09-24T23:26:19.317Z,98.30
2022-09-24T23:28:52.594Z,98.30
2022-09-24T23:31:22.433Z,98.30
2022-09-24T23:33:49.898Z,98.30
2022-09-24T23:36:17.029Z,98.30
2022-09-24T23:38:43.879Z,98.30
2022-09-24T23:41:12.394Z,98.30
2022-09-24T23:43:39.126Z,98.30
2022-09-24T23:46:06.123Z,98.30
2022-09-24T23:48:32.995Z,98.30
2022-09-24T23:50:59.674Z,98.30
2022-09-24T23:53:27.013Z,98.30
2022-09-24T23:55:54.824Z,98.30
2022-09-24T23:58:23.064Z,98.30
